createdAt,value
2022-10-11T00:01:20.183Z,11.73
2022-10-11T00:03:46.831Z,11.73
2022-10-11T00:06:13.474Z,11.53
2022-10-11T00:08:40.076Z,11.56
2022-10-11T00:11:07.784Z,11.57
2022-10-11T00:13:34.607Z,11.37
2022-10-11T00:16:01.466Z,11.29
2022-10-11T00:18:28.310Z,11.20
2022-10-11T00:21:21.735Z,11.15
2022-10-11T00:23:49.143Z,11.26
2022-10-11T00:26:16.442Z,11.22
2022-10-11T00:28:43.082Z,11.27
2022-10-11T00:31:13.641Z,11.06
2022-10-11T00:33:40.432Z,11.21
2022-10-11T00:36:08.522Z,11.12
2022-10-11T00:38:35.425Z,11.03
2022-10-11T00:41:02.490Z,10.99
2022-10-11T00:43:30.879Z,10.81
2022-10-11T00:45:57.445Z,10.78
2022-10-11T00:48:27.680Z,10.63
2022-10-11T00:50:57.530Z,10.54
2022-10-11T00:53:24.942Z,10.46
2022-10-11T00:56:03.654Z,10.27
2022-10-11T00:58:31.832Z,10.32
2022-10-11T01:00:58.475Z,10.16
2022-10-11T01:03:28.817Z,10.19
2022-10-11T01:05:56.925Z,10.12
2022-10-11T01:08:23.803Z,10.01
2022-10-11T01:10:51.314Z,10.02
2022-10-11T01:13:41.086Z,9.90
2022-10-11T01:16:30.994Z,9.89
2022-10-11T01:19:35.448Z,9.80
2022-10-11T01:22:20.447Z,9.78
2022-10-11T01:24:59.354Z,9.61
2022-10-11T01:27:53.402Z,9.61
2022-10-11T01:30:27.696Z,9.50
2022-10-11T01:32:56.992Z,9.48
2022-10-11T01:35:26.647Z,9.52
2022-10-11T01:38:01.100Z,9.39
2022-10-11T01:40:33.745Z,9.37
2022-10-11T01:43:02.043Z,9.32
2022-10-11T01:45:29.872Z,9.27
2022-10-11T01:48:08.273Z,9.18
2022-10-11T01:50:34.796Z,9.07
2022-10-11T01:53:12.791Z,8.98
2022-10-11T01:55:51.849Z,8.97
2022-10-11T01:58:53.859Z,8.92
2022-10-11T02:01:42.162Z,8.79
2022-10-11T02:04:24.890Z,8.87
2022-10-11T02:07:00.510Z,8.78
2022-10-11T02:09:31.557Z,8.78
2022-10-11T02:12:05.260Z,8.56
2022-10-11T02:14:37.322Z,8.64
2022-10-11T02:17:10.694Z,8.45
2022-10-11T02:19:42.695Z,8.15
2022-10-11T02:22:15.602Z,8.00
2022-10-11T02:24:45.653Z,7.81
2022-10-11T02:27:13.545Z,7.92
2022-10-11T02:29:43.828Z,7.79
2022-10-11T02:32:11.070Z,7.64
2022-10-11T02:34:46.820Z,7.61
2022-10-11T02:37:24.148Z,7.60
2022-10-11T02:40:02.253Z,7.60
2022-10-11T02:42:36.584Z,7.73
2022-10-11T02:45:10.697Z,7.96
2022-10-11T02:47:38.074Z,7.93
2022-10-11T02:50:05.284Z,7.85
2022-10-11T02:52:31.825Z,7.88
2022-10-11T02:54:58.386Z,7.98
2022-10-11T02:57:25.065Z,7.98
2022-10-11T02:59:51.738Z,7.97
2022-10-11T03:02:18.287Z,7.84
2022-10-11T03:04:44.858Z,7.85
2022-10-11T03:07:11.657Z,7.80
2022-10-11T03:09:38.210Z,7.83
2022-10-11T03:12:04.975Z,7.73
2022-10-11T03:14:31.572Z,7.85
2022-10-11T03:17:12.112Z,7.73
2022-10-11T03:19:44.784Z,7.80
2022-10-11T03:22:11.399Z,7.72
2022-10-11T03:24:37.937Z,7.74
2022-10-11T03:27:04.516Z,7.58
2022-10-11T03:29:31.099Z,7.51
2022-10-11T03:31:57.767Z,7.49
2022-10-11T03:34:24.336Z,7.42
2022-10-11T03:36:51.383Z,7.42
2022-10-11T03:39:18.082Z,7.41
2022-10-11T03:41:44.692Z,7.41
2022-10-11T03:44:11.226Z,7.40
2022-10-11T03:46:37.777Z,7.34
2022-10-11T03:49:04.524Z,7.32
2022-10-11T03:51:31.834Z,7.27
2022-10-11T03:53:58.471Z,7.33
2022-10-11T03:56:25.055Z,7.23
2022-10-11T03:58:51.617Z,7.16
2022-10-11T04:01:18.206Z,7.13
2022-10-11T04:03:44.826Z,7.06
2022-10-11T04:06:11.498Z,7.12
2022-10-11T04:08:38.039Z,7.14
2022-10-11T04:11:04.759Z,7.02
2022-10-11T04:13:31.503Z,7.14
2022-10-11T04:15:58.165Z,7.13
2022-10-11T04:18:24.859Z,6.99
2022-10-11T04:20:51.448Z,7.02
2022-10-11T04:23:17.972Z,6.92
2022-10-11T04:25:45.604Z,6.85
2022-10-11T04:28:12.265Z,6.68
2022-10-11T04:30:38.873Z,6.64
2022-10-11T04:33:05.560Z,6.56
2022-10-11T04:35:32.318Z,6.57
2022-10-11T04:37:58.942Z,6.49
2022-10-11T04:40:25.527Z,6.59
2022-10-11T04:42:53.732Z,6.68
2022-10-11T04:45:21.596Z,6.80
2022-10-11T04:47:48.783Z,6.80
2022-10-11T04:50:15.820Z,6.78
2022-10-11T04:52:42.653Z,6.70
2022-10-11T04:55:10.078Z,6.80
2022-10-11T04:57:36.792Z,6.75
2022-10-11T05:00:05.055Z,6.69
2022-10-11T05:02:31.725Z,6.60
2022-10-11T05:04:58.661Z,6.65
2022-10-11T05:07:28.098Z,6.61
2022-10-11T05:09:54.721Z,6.60
2022-10-11T05:12:21.488Z,6.51
2022-10-11T05:14:48.062Z,6.07
2022-10-11T05:17:14.687Z,5.87
2022-10-11T05:19:41.275Z,5.80
2022-10-11T05:22:08.094Z,5.88
2022-10-11T05:24:34.779Z,6.08
2022-10-11T05:27:03.515Z,6.12
2022-10-11T05:29:30.366Z,6.15
2022-10-11T05:31:56.909Z,6.17
2022-10-11T05:34:23.509Z,6.14
2022-10-11T05:36:50.137Z,6.16
2022-10-11T05:39:16.773Z,6.13
2022-10-11T05:41:43.464Z,5.93
2022-10-11T05:44:10.005Z,5.78
2022-10-11T05:46:36.599Z,5.79
2022-10-11T05:49:03.391Z,6.06
2022-10-11T05:51:29.950Z,6.11
2022-10-11T05:53:56.590Z,6.19
2022-10-11T05:56:25.776Z,6.21
2022-10-11T05:58:52.964Z,6.31
2022-10-11T06:01:25.019Z,6.39
2022-10-11T06:03:52.150Z,6.48
2022-10-11T06:06:19.639Z,6.45
2022-10-11T06:08:46.759Z,6.43
2022-10-11T06:11:31.688Z,6.46
2022-10-11T06:13:58.466Z,6.53
2022-10-11T06:16:25.876Z,6.61
2022-10-11T06:18:57.076Z,6.76
2022-10-11T06:21:24.285Z,6.85
2022-10-11T06:23:55.580Z,6.93
2022-10-11T06:26:25.090Z,7.18
2022-10-11T06:28:52.879Z,7.18
2022-10-11T06:31:19.535Z,7.23
2022-10-11T06:33:46.087Z,7.21
2022-10-11T06:36:14.603Z,7.23
2022-10-11T06:38:45.023Z,7.19
2022-10-11T06:41:19.365Z,7.17
2022-10-11T06:43:46.313Z,7.21
2022-10-11T06:46:13.047Z,7.17
2022-10-11T06:48:40.932Z,7.21
2022-10-11T06:51:07.591Z,7.25
2022-10-11T06:53:34.144Z,7.24
2022-10-11T06:56:09.854Z,7.29
2022-10-11T06:58:37.572Z,7.40
2022-10-11T07:01:07.396Z,7.32
2022-10-11T07:03:34.714Z,7.23
2022-10-11T07:06:03.202Z,7.24
2022-10-11T07:08:30.186Z,7.24
2022-10-11T07:11:01.871Z,7.32
2022-10-11T07:13:28.601Z,7.43
2022-10-11T07:15:56.016Z,7.14
2022-10-11T07:18:23.446Z,6.96
2022-10-11T07:20:50.020Z,7.24
2022-10-11T07:23:16.772Z,7.48
2022-10-11T07:25:44.976Z,7.46
2022-10-11T07:28:12.128Z,7.82
2022-10-11T07:30:40.162Z,7.76
2022-10-11T07:33:06.887Z,8.05
2022-10-11T07:35:37.415Z,8.41
2022-10-11T07:38:05.577Z,8.61
2022-10-11T07:40:33.705Z,8.39
2022-10-11T07:43:00.870Z,8.34
2022-10-11T07:45:29.100Z,8.40
2022-10-11T07:47:58.861Z,8.42
2022-10-11T07:50:25.530Z,8.15
2022-10-11T07:52:52.115Z,8.19
2022-10-11T07:55:19.746Z,8.28
2022-10-11T07:57:46.322Z,8.15
2022-10-11T08:00:13.462Z,8.49
2022-10-11T08:02:40.044Z,8.69
2022-10-11T08:05:07.031Z,8.71
2022-10-11T08:07:33.680Z,9.19
2022-10-11T08:10:00.272Z,9.54
2022-10-11T08:12:26.945Z,10.72
2022-10-11T08:14:55.019Z,11.25
2022-10-11T08:17:21.677Z,10.44
2022-10-11T08:19:48.577Z,11.58
2022-10-11T08:22:15.180Z,11.81
2022-10-11T08:24:41.958Z,12.24
2022-10-11T08:27:08.533Z,12.14
2022-10-11T08:29:35.094Z,12.67
2022-10-11T08:32:01.768Z,12.44
2022-10-11T08:34:28.292Z,13.27
2022-10-11T08:36:55.128Z,13.15
2022-10-11T08:39:22.313Z,13.16
2022-10-11T08:41:54.416Z,12.02
2022-10-11T08:45:09.538Z,12.22
2022-10-11T08:47:36.409Z,11.03
2022-10-11T08:50:05.848Z,12.13
2022-10-11T08:52:46.777Z,13.38
2022-10-11T08:55:28.479Z,12.64
2022-10-11T08:57:56.724Z,13.12
2022-10-11T09:00:24.702Z,13.33
2022-10-11T09:03:08.008Z,13.73
2022-10-11T09:05:39.564Z,14.52
2022-10-11T09:08:14.774Z,13.93
2022-10-11T09:10:58.487Z,14.71
2022-10-11T09:13:35.775Z,14.84
2022-10-11T09:17:00.731Z,13.05
2022-10-11T09:19:36.317Z,14.10
2022-10-11T09:22:12.071Z,14.59
2022-10-11T09:24:47.707Z,13.93
2022-10-11T09:27:43.633Z,15.48
2022-10-11T09:30:17.760Z,15.95
2022-10-11T09:32:54.771Z,15.95
2022-10-11T09:35:22.672Z,16.36
2022-10-11T09:37:59.281Z,16.13
2022-10-11T09:40:55.477Z,16.55
2022-10-11T09:43:22.066Z,16.67
2022-10-11T09:45:49.751Z,16.69
2022-10-11T09:48:27.360Z,16.45
2022-10-11T09:51:02.503Z,16.45
2022-10-11T09:54:03.313Z,15.82
2022-10-11T09:56:31.922Z,16.94
2022-10-11T09:59:22.004Z,17.01
2022-10-11T10:01:49.108Z,17.39
2022-10-11T10:04:19.981Z,17.58
2022-10-11T10:06:46.542Z,15.94
2022-10-11T10:09:20.620Z,16.31
2022-10-11T10:11:47.660Z,15.70
2022-10-11T10:14:32.471Z,16.08
2022-10-11T10:17:05.617Z,17.00
2022-10-11T10:19:48.817Z,16.13
2022-10-11T10:22:24.434Z,15.28
2022-10-11T10:24:52.017Z,16.40
2022-10-11T10:27:36.828Z,17.34
2022-10-11T10:30:09.154Z,17.10
2022-10-11T10:33:01.200Z,16.88
2022-10-11T10:35:47.097Z,17.62
2022-10-11T10:38:52.139Z,17.54
2022-10-11T10:41:19.440Z,17.52
2022-10-11T10:43:56.505Z,17.38
2022-10-11T10:47:19.527Z,15.64
2022-10-11T10:49:57.175Z,16.85
2022-10-11T10:52:43.610Z,16.35
2022-10-11T10:55:22.647Z,17.41
2022-10-11T10:58:18.963Z,16.30
2022-10-11T11:01:04.262Z,16.35
2022-10-11T11:03:46.300Z,16.58
2022-10-11T11:06:46.858Z,16.93
2022-10-11T11:09:22.680Z,16.29
2022-10-11T11:12:21.634Z,16.68
2022-10-11T11:15:08.434Z,15.90
2022-10-11T11:17:56.896Z,16.37
2022-10-11T11:20:24.889Z,16.60
2022-10-11T11:22:59.174Z,16.13
2022-10-11T11:25:45.132Z,16.19
2022-10-11T11:28:47.432Z,15.78
2022-10-11T11:31:13.944Z,16.63
2022-10-11T11:33:57.363Z,16.59
2022-10-11T11:36:32.358Z,15.63
2022-10-11T11:39:02.918Z,16.04
2022-10-11T11:41:48.106Z,16.99
2022-10-11T11:44:33.530Z,17.21
2022-10-11T11:47:00.371Z,17.27
2022-10-11T11:52:23.142Z,16.75
2022-10-11T11:55:04.290Z,16.38
2022-10-11T11:57:30.928Z,17.53
2022-10-11T12:00:12.787Z,17.64
2022-10-11T12:02:55.167Z,18.04
2022-10-11T12:05:25.903Z,16.00
2022-10-11T12:08:02.215Z,16.83
2022-10-11T12:10:49.870Z,16.59
2022-10-11T12:13:21.414Z,17.77
2022-10-11T12:16:03.245Z,17.47
2022-10-11T12:18:31.315Z,18.43
2022-10-11T12:21:06.437Z,18.60
2022-10-11T12:24:21.002Z,18.02
2022-10-11T12:26:49.363Z,16.70
2022-10-11T12:29:19.103Z,18.52
2022-10-11T12:31:50.001Z,18.12
2022-10-11T12:37:19.738Z,17.44
2022-10-11T12:39:50.264Z,19.31
2022-10-11T12:42:23.663Z,19.38
2022-10-11T12:45:12.267Z,18.03
2022-10-11T12:47:48.131Z,18.00
2022-10-11T12:50:21.657Z,18.60
2022-10-11T12:52:57.001Z,18.52
2022-10-11T12:55:35.142Z,17.16
2022-10-11T12:58:24.713Z,17.34
2022-10-11T13:00:51.685Z,16.51
2022-10-11T13:03:31.212Z,16.45
2022-10-11T13:06:01.874Z,17.21
2022-10-11T13:08:36.342Z,16.87
2022-10-11T13:11:08.604Z,16.85
2022-10-11T13:13:48.327Z,17.22
2022-10-11T13:16:18.497Z,16.35
2022-10-11T13:18:48.081Z,16.96
2022-10-11T13:21:36.315Z,17.40
2022-10-11T13:24:23.958Z,17.78
2022-10-11T13:26:54.412Z,16.58
2022-10-11T13:29:35.372Z,17.34
2022-10-11T13:32:07.660Z,18.16
2022-10-11T13:34:39.022Z,16.78
2022-10-11T13:37:06.834Z,15.87
2022-10-11T13:39:39.266Z,16.07
2022-10-11T13:42:10.110Z,15.86
2022-10-11T13:44:38.745Z,15.87
2022-10-11T13:47:05.865Z,16.41
2022-10-11T13:49:39.766Z,16.78
2022-10-11T13:52:19.367Z,15.68
2022-10-11T13:55:11.482Z,16.03
2022-10-11T13:57:44.902Z,17.09
2022-10-11T14:00:30.881Z,17.56
2022-10-11T14:03:00.738Z,17.43
2022-10-11T14:05:44.348Z,17.91
2022-10-11T14:08:32.085Z,16.70
2022-10-11T14:11:05.151Z,16.56
2022-10-11T14:13:38.990Z,16.43
2022-10-11T14:16:12.814Z,16.64
2022-10-11T14:19:08.665Z,15.84
2022-10-11T14:21:47.456Z,16.40
2022-10-11T14:24:14.601Z,16.31
2022-10-11T14:26:46.923Z,15.78
2022-10-11T14:29:31.224Z,15.87
2022-10-11T14:32:12.179Z,16.16
2022-10-11T14:34:38.788Z,15.85
2022-10-11T14:37:05.557Z,15.92
2022-10-11T14:39:33.221Z,17.19
2022-10-11T14:41:59.884Z,17.44
2022-10-11T14:44:26.723Z,17.33
2022-10-11T14:46:54.714Z,17.44
2022-10-11T14:49:25.566Z,16.59
2022-10-11T14:51:53.486Z,16.38
2022-10-11T14:54:23.180Z,16.24
2022-10-11T14:56:51.150Z,16.23
2022-10-11T14:59:21.188Z,16.66
2022-10-11T15:01:53.522Z,16.71
2022-10-11T15:04:26.431Z,16.95
2022-10-11T15:06:54.791Z,16.31
2022-10-11T15:09:21.996Z,16.83
2022-10-11T15:11:50.405Z,16.87
2022-10-11T15:14:17.431Z,16.92
2022-10-11T15:16:44.142Z,16.08
2022-10-11T15:19:21.753Z,15.36
2022-10-11T15:21:48.527Z,15.14
2022-10-11T15:24:15.422Z,15.30
2022-10-11T15:26:42.411Z,15.16
2022-10-11T15:29:12.396Z,15.13
2022-10-11T15:31:39.578Z,15.42
2022-10-11T15:34:06.458Z,15.52
2022-10-11T15:36:33.101Z,15.43
2022-10-11T15:39:00.137Z,15.00
2022-10-11T15:41:26.800Z,15.08
2022-10-11T15:43:53.388Z,15.08
2022-10-11T15:46:22.574Z,14.64
2022-10-11T15:48:50.808Z,14.61
2022-10-11T15:51:17.868Z,14.67
2022-10-11T15:53:44.756Z,14.65
2022-10-11T15:56:16.295Z,14.50
2022-10-11T15:58:43.390Z,14.23
2022-10-11T16:01:16.744Z,14.16
2022-10-11T16:03:44.742Z,13.98
2022-10-11T16:06:12.249Z,13.99
2022-10-11T16:08:39.436Z,13.61
2022-10-11T16:11:07.823Z,13.74
2022-10-11T16:13:35.702Z,13.55
2022-10-11T16:16:07.598Z,13.36
2022-10-11T16:18:35.842Z,13.09
2022-10-11T16:21:09.060Z,12.89
2022-10-11T16:23:36.439Z,12.90
2022-10-11T16:26:06.644Z,12.75
2022-10-11T16:28:33.882Z,12.62
2022-10-11T16:31:06.285Z,12.55
2022-10-11T16:33:32.950Z,12.71
2022-10-11T16:36:19.451Z,12.38
2022-10-11T16:38:46.108Z,12.22
2022-10-11T16:41:12.652Z,12.18
2022-10-11T16:43:39.297Z,12.29
2022-10-11T16:46:06.143Z,12.11
2022-10-11T16:48:33.070Z,12.06
2022-10-11T16:51:07.307Z,11.92
2022-10-11T16:53:35.098Z,11.87
2022-10-11T16:56:08.764Z,11.77
2022-10-11T16:58:36.111Z,11.48
2022-10-11T17:01:07.891Z,11.58
2022-10-11T17:03:34.680Z,11.61
2022-10-11T17:06:01.450Z,11.42
2022-10-11T17:08:28.757Z,11.36
2022-10-11T17:10:57.696Z,11.33
2022-10-11T17:13:25.337Z,11.28
2022-10-11T17:15:52.190Z,11.15
2022-10-11T17:18:18.993Z,10.91
2022-10-11T17:20:45.574Z,10.88
2022-10-11T17:23:12.254Z,10.81
2022-10-11T17:25:43.318Z,10.74
2022-10-11T17:28:10.485Z,10.79
2022-10-11T17:30:38.181Z,10.80
2022-10-11T17:33:04.838Z,10.70
2022-10-11T17:35:32.759Z,10.65
2022-10-11T17:38:05.720Z,10.65
2022-10-11T17:40:32.870Z,10.55
2022-10-11T17:42:59.484Z,10.54
2022-10-11T17:45:26.054Z,10.46
2022-10-11T17:47:52.687Z,10.42
2022-10-11T17:50:19.257Z,10.37
2022-10-11T17:52:45.981Z,10.31
2022-10-11T17:55:12.709Z,10.26
2022-10-11T17:57:39.874Z,10.17
2022-10-11T18:00:07.309Z,9.75
2022-10-11T18:02:34.009Z,9.76
2022-10-11T18:05:00.672Z,9.66
2022-10-11T18:07:27.331Z,9.43
2022-10-11T18:09:53.881Z,9.61
2022-10-11T18:12:20.454Z,9.58
2022-10-11T18:14:47.036Z,9.54
2022-10-11T18:17:13.589Z,9.46
2022-10-11T18:19:40.131Z,9.53
2022-10-11T18:22:07.374Z,9.56
2022-10-11T18:24:34.274Z,9.42
2022-10-11T18:27:00.941Z,9.18
2022-10-11T18:29:27.525Z,9.09
2022-10-11T18:31:54.081Z,9.19
2022-10-11T18:34:20.681Z,8.92
2022-10-11T18:36:47.518Z,8.96
2022-10-11T18:39:15.074Z,8.86
2022-10-11T18:41:44.527Z,8.77
2022-10-11T18:44:14.172Z,8.79
2022-10-11T18:46:41.697Z,8.78
2022-10-11T18:49:08.872Z,8.64
2022-10-11T18:51:38.007Z,8.52
2022-10-11T18:54:06.061Z,8.66
2022-10-11T18:56:34.592Z,8.67
2022-10-11T18:59:01.247Z,8.63
2022-10-11T19:01:39.787Z,8.64
2022-10-11T19:04:08.936Z,8.63
2022-10-11T19:06:38.350Z,8.60
2022-10-11T19:09:07.949Z,8.46
2022-10-11T19:11:34.826Z,8.30
2022-10-11T19:14:07.019Z,8.21
2022-10-11T19:16:35.680Z,8.27
2022-10-11T19:19:02.373Z,8.25
2022-10-11T19:21:30.049Z,8.33
2022-10-11T19:23:57.066Z,8.21
2022-10-11T19:26:27.501Z,8.23
2022-10-11T19:28:59.878Z,8.20
2022-10-11T19:31:27.780Z,8.24
2022-10-11T19:33:57.806Z,8.32
2022-10-11T19:36:26.373Z,8.33
2022-10-11T19:38:57.045Z,8.24
2022-10-11T19:41:26.036Z,8.21
2022-10-11T19:43:54.387Z,8.26
2022-10-11T19:49:09.765Z,8.27
2022-10-11T19:51:37.428Z,8.27
2022-10-11T19:54:07.440Z,8.32
2022-10-11T19:56:34.756Z,8.16
2022-10-11T19:59:01.948Z,8.11
2022-10-11T20:01:30.845Z,8.00
2022-10-11T20:03:59.663Z,7.96
2022-10-11T20:06:27.932Z,7.83
2022-10-11T20:09:16.634Z,7.62
2022-10-11T20:11:42.183Z,7.32
2022-10-11T20:14:08.912Z,7.33
2022-10-11T20:16:35.886Z,7.14
2022-10-11T20:19:02.796Z,7.24
2022-10-11T20:21:30.326Z,7.24
2022-10-11T20:24:01.606Z,7.25
2022-10-11T20:26:30.241Z,7.40
2022-10-11T20:28:57.841Z,7.46
2022-10-11T20:31:29.040Z,7.56
2022-10-11T20:33:57.761Z,7.61
2022-10-11T20:36:26.094Z,7.72
2022-10-11T20:38:52.901Z,7.67
2022-10-11T20:41:21.898Z,7.59
2022-10-11T20:43:50.695Z,7.45
2022-10-11T20:46:19.717Z,7.35
2022-10-11T20:48:58.892Z,7.45
2022-10-11T20:51:28.584Z,7.42
2022-10-11T20:53:55.493Z,7.46
2022-10-11T20:56:23.173Z,7.46
2022-10-11T20:58:55.076Z,7.12
2022-10-11T21:01:26.985Z,6.85
2022-10-11T21:03:53.732Z,6.69
2022-10-11T21:06:20.598Z,6.78
2022-10-11T21:08:47.156Z,7.09
2022-10-11T21:11:13.752Z,7.12
2022-10-11T21:13:40.505Z,7.20
2022-10-11T21:16:14.718Z,7.13
2022-10-11T21:18:41.879Z,6.78
2022-10-11T21:21:11.735Z,6.65
2022-10-11T21:23:38.739Z,6.77
2022-10-11T21:26:08.776Z,6.98
2022-10-11T21:28:35.454Z,7.02
2022-10-11T21:31:09.593Z,7.08
2022-10-11T21:33:36.641Z,7.03
2022-10-11T21:36:05.126Z,6.81
2022-10-11T21:38:32.368Z,6.73
2022-10-11T21:40:58.930Z,6.80
2022-10-11T21:43:25.462Z,6.63
2022-10-11T21:45:52.009Z,6.42
2022-10-11T21:48:18.642Z,6.44
2022-10-11T21:50:52.383Z,6.25
2022-10-11T21:53:18.948Z,6.07
2022-10-11T21:55:45.492Z,6.17
2022-10-11T21:58:12.070Z,6.10
2022-10-11T22:00:39.090Z,6.31
2022-10-11T22:03:05.625Z,6.46
2022-10-11T22:05:32.262Z,6.60
2022-10-11T22:07:58.792Z,6.58
2022-10-11T22:10:25.383Z,6.64
2022-10-11T22:12:51.982Z,6.68
2022-10-11T22:15:18.553Z,6.55
2022-10-11T22:17:45.073Z,6.46
2022-10-11T22:20:11.658Z,6.46
2022-10-11T22:22:38.452Z,6.27
2022-10-11T22:25:05.608Z,6.01
2022-10-11T22:27:32.162Z,6.03
2022-10-11T22:29:58.758Z,6.02
2022-10-11T22:32:25.335Z,6.04
2022-10-11T22:34:52.002Z,6.21
2022-10-11T22:37:18.552Z,6.33
2022-10-11T22:39:45.098Z,6.27
2022-10-11T22:42:11.676Z,6.24
2022-10-11T22:44:38.203Z,6.31
2022-10-11T22:47:04.851Z,6.23
2022-10-11T22:49:31.385Z,6.16
2022-10-11T22:51:57.924Z,6.06
2022-10-11T22:54:24.505Z,6.07
2022-10-11T22:56:51.053Z,5.98
2022-10-11T22:59:17.607Z,5.81
2022-10-11T23:01:44.129Z,5.85
2022-10-11T23:04:10.729Z,6.05
2022-10-11T23:06:37.235Z,6.19
2022-10-11T23:09:04.068Z,6.19
2022-10-11T23:11:30.727Z,6.15
2022-10-11T23:13:57.297Z,6.19
2022-10-11T23:16:23.845Z,6.00
2022-10-11T23:18:53.256Z,5.83
2022-10-11T23:21:20.378Z,5.87
2022-10-11T23:23:47.339Z,5.88
2022-10-11T23:26:16.224Z,5.97
2022-10-11T23:28:43.790Z,5.93
2022-10-11T23:31:18.240Z,5.93
2022-10-11T23:33:46.036Z,5.94
2022-10-11T23:36:16.550Z,5.99
2022-10-11T23:38:43.791Z,6.03
2022-10-11T23:41:10.799Z,5.97
2022-10-11T23:43:37.589Z,5.91
2022-10-11T23:46:04.304Z,5.75
2022-10-11T23:48:30.820Z,5.92
2022-10-11T23:50:57.389Z,6.02
2022-10-11T23:53:23.946Z,6.00
2022-10-11T23:55:50.770Z,6.03
2022-10-11T23:58:17.329Z,5.94
